Time;durP1;ratioP1;P1;durP2;ratioP2;P2;SDS_P1;SDS_P2;PMS_P1;PMS_P2;Temp;Humidity;BMP_temperature;BMP_pressure;BME280_temperature;BME280_humidity;BME280_pressure;Samples;Min_cycle;Max_cycle;Signal;HPM_P1;HPM_P2
2023/03/22 00:01:21;;;;;;;9.32;8.93;;;;;;;;;;5071842;28;20017;-69
2023/03/22 00:03:47;;;;;;;9.90;9.40;;;;;;;;;;5064864;28;20357;-69
2023/03/22 00:06:12;;;;;;;10.07;9.57;;;;;;;;;;5071366;28;20430;-68
2023/03/22 00:08:38;;;;;;;9.93;9.43;;;;;;;;;;5070823;28;20031;-68
2023/03/22 00:11:04;;;;;;;10.00;9.50;;;;;;;;;;5071460;28;20380;-68
2023/03/22 00:13:30;;;;;;;10.02;9.52;;;;;;;;;;5071453;28;20063;-68
2023/03/22 00:15:58;;;;;;;10.05;9.55;;;;;;;;;;5071658;28;20027;-68
2023/03/22 00:18:23;;;;;;;10.02;9.52;;;;;;;;;;5062651;28;20021;-68
2023/03/22 00:20:49;;;;;;;10.10;9.60;;;;;;;;;;5071365;28;20443;-67
2023/03/22 00:23:15;;;;;;;10.00;9.50;;;;;;;;;;5071626;28;20029;-68
2023/03/22 00:25:41;;;;;;;9.90;9.40;;;;;;;;;;5070723;28;20083;-68
2023/03/22 00:28:06;;;;;;;9.90;9.40;;;;;;;;;;5071178;28;20024;-68
2023/03/22 00:30:32;;;;;;;9.65;9.15;;;;;;;;;;5070100;28;20082;-68
2023/03/22 00:32:57;;;;;;;9.80;9.30;;;;;;;;;;5065473;28;20479;-68
2023/03/22 00:35:22;;;;;;;9.80;9.30;;;;;;;;;;5071133;28;20028;-67
2023/03/22 00:37:49;;;;;;;10.00;9.50;;;;;;;;;;5070946;28;20024;-68
2023/03/22 00:40:15;;;;;;;9.90;9.40;;;;;;;;;;5070821;28;20027;-68
2023/03/22 00:42:40;;;;;;;10.20;9.70;;;;;;;;;;5067192;28;20029;-68
2023/03/22 00:45:07;;;;;;;10.13;9.63;;;;;;;;;;5059941;28;20631;-67
2023/03/22 00:47:32;;;;;;;10.27;9.77;;;;;;;;;;5067801;28;20398;-68
2023/03/22 00:49:58;;;;;;;10.10;9.60;;;;;;;;;;5069038;28;20119;-68
2023/03/22 00:52:23;;;;;;;10.00;9.50;;;;;;;;;;5069445;28;20016;-67
2023/03/22 00:54:49;;;;;;;9.75;9.25;;;;;;;;;;5070875;28;20017;-67
2023/03/22 00:57:15;;;;;;;9.35;8.90;;;;;;;;;;5070703;28;20675;-67
2023/03/22 00:59:41;;;;;;;9.40;9.00;;;;;;;;;;5068850;28;20515;-68
2023/03/22 01:02:07;;;;;;;9.23;8.82;;;;;;;;;;5060120;28;20038;-67
2023/03/22 01:04:34;;;;;;;9.57;9.13;;;;;;;;;;5070684;28;20452;-66
2023/03/22 01:07:01;;;;;;;10.10;9.60;;;;;;;;;;5069491;28;20334;-67
2023/03/22 01:09:32;;;;;;;9.82;9.32;;;;;;;;;;5070930;28;20088;-68
2023/03/22 01:11:57;;;;;;;9.85;9.35;;;;;;;;;;5069553;28;20017;-68
2023/03/22 01:14:23;;;;;;;9.38;8.90;;;;;;;;;;5064662;28;20112;-68
2023/03/22 01:16:49;;;;;;;9.73;9.23;;;;;;;;;;5069956;28;20012;-68
2023/03/22 01:19:14;;;;;;;9.95;9.45;;;;;;;;;;5070638;28;20021;-68
2023/03/22 01:21:40;;;;;;;9.98;9.48;;;;;;;;;;5055888;28;20108;-68
2023/03/22 01:24:05;;;;;;;9.90;9.40;;;;;;;;;;5070903;28;20028;-68
2023/03/22 01:26:30;;;;;;;9.48;8.98;;;;;;;;;;5070555;28;20017;-68
2023/03/22 01:28:56;;;;;;;9.73;9.23;;;;;;;;;;5065956;28;20012;-67
2023/03/22 01:31:21;;;;;;;9.60;9.10;;;;;;;;;;5070633;28;20387;-69
2023/03/22 01:33:46;;;;;;;9.30;8.90;;;;;;;;;;5068227;28;20017;-68
2023/03/22 01:36:12;;;;;;;9.10;8.70;;;;;;;;;;5069232;28;20020;-67
2023/03/22 01:38:37;;;;;;;9.23;8.82;;;;;;;;;;5069185;28;20023;-67
2023/03/22 01:41:02;;;;;;;9.98;9.48;;;;;;;;;;5070296;28;20484;-68
2023/03/22 01:43:28;;;;;;;9.77;9.27;;;;;;;;;;5058948;28;20027;-68
2023/03/22 01:45:53;;;;;;;10.05;9.55;;;;;;;;;;5070235;28;20028;-68
2023/03/22 01:48:27;;;;;;;9.73;9.23;;;;;;;;;;5070355;28;20013;-68
2023/03/22 01:51:01;;;;;;;9.40;8.93;;;;;;;;;;5070254;28;20028;-68
2023/03/22 01:53:27;;;;;;;9.55;9.05;;;;;;;;;;5081223;28;20099;-68
2023/03/22 01:55:52;;;;;;;9.63;9.13;;;;;;;;;;5070315;28;20100;-68
2023/03/22 01:58:18;;;;;;;9.75;9.25;;;;;;;;;;5061757;28;20555;-68
2023/03/22 02:00:44;;;;;;;9.45;8.98;;;;;;;;;;5070222;28;20051;-68
2023/03/22 02:03:11;;;;;;;9.82;9.32;;;;;;;;;;5072431;28;20092;-68
2023/03/22 02:05:37;;;;;;;10.35;9.75;;;;;;;;;;5073790;28;20097;-68
2023/03/22 02:08:03;;;;;;;9.93;9.43;;;;;;;;;;5067748;28;20136;-68
2023/03/22 02:10:28;;;;;;;9.50;9.00;;;;;;;;;;5060380;28;20024;-68
2023/03/22 02:12:54;;;;;;;9.27;8.88;;;;;;;;;;5072833;28;20017;-69
2023/03/22 02:15:22;;;;;;;9.07;8.68;;;;;;;;;;5072575;28;20019;-68
2023/03/22 02:17:50;;;;;;;9.63;9.13;;;;;;;;;;5073653;28;20020;-68
2023/03/22 02:20:28;;;;;;;9.27;8.88;;;;;;;;;;5073635;28;20016;-69
2023/03/22 02:23:18;;;;;;;9.48;8.98;;;;;;;;;;5060722;28;20025;-68
2023/03/22 02:25:57;;;;;;;9.82;9.32;;;;;;;;;;5067673;28;20013;-68
2023/03/22 02:28:41;;;;;;;9.88;9.38;;;;;;;;;;5059672;28;20025;-68
2023/03/22 02:31:18;;;;;;;9.80;9.30;;;;;;;;;;5072042;28;20513;-69
2023/03/22 02:33:56;;;;;;;9.63;9.13;;;;;;;;;;5073443;28;20017;-68
2023/03/22 02:36:33;;;;;;;9.40;9.00;;;;;;;;;;5073297;28;20048;-67
2023/03/22 02:38:58;;;;;;;9.88;9.38;;;;;;;;;;5068735;28;20017;-68
2023/03/22 02:41:30;;;;;;;9.00;8.60;;;;;;;;;;5071580;28;20020;-69
2023/03/22 02:44:16;;;;;;;9.63;9.13;;;;;;;;;;5065048;28;20036;-68
2023/03/22 02:47:05;;;;;;;9.82;9.32;;;;;;;;;;5064596;28;20096;-68
2023/03/22 02:49:39;;;;;;;9.35;8.88;;;;;;;;;;5052451;28;20553;-70
2023/03/22 02:52:09;;;;;;;9.63;9.13;;;;;;;;;;5074129;28;20017;-68
2023/03/22 02:54:38;;;;;;;9.32;8.90;;;;;;;;;;5082240;28;20476;-67
2023/03/22 02:57:07;;;;;;;9.40;8.90;;;;;;;;;;5072508;28;20053;-68
2023/03/22 02:59:33;;;;;;;8.80;8.40;;;;;;;;;;5072248;28;20455;-67
2023/03/22 03:02:00;;;;;;;9.18;8.77;;;;;;;;;;5072633;28;20716;-68
2023/03/22 03:04:31;;;;;;;9.30;8.90;;;;;;;;;;5073291;28;20024;-69
2023/03/22 03:07:00;;;;;;;10.20;9.70;;;;;;;;;;5055611;28;20021;-69
2023/03/22 03:09:26;;;;;;;9.00;8.60;;;;;;;;;;5071664;28;20021;-69
2023/03/22 03:11:52;;;;;;;9.73;9.23;;;;;;;;;;5072812;28;20019;-68
2023/03/22 03:14:28;;;;;;;9.60;9.10;;;;;;;;;;5072383;28;20063;-68
2023/03/22 03:17:13;;;;;;;10.02;9.52;;;;;;;;;;5072053;28;20035;-67
2023/03/22 03:19:44;;;;;;;9.10;8.70;;;;;;;;;;5060539;28;20032;-69
2023/03/22 03:22:09;;;;;;;9.75;9.25;;;;;;;;;;5070107;28;20024;-68
2023/03/22 03:24:35;;;;;;;9.40;8.98;;;;;;;;;;5072471;28;20111;-68
2023/03/22 03:27:07;;;;;;;9.77;9.27;;;;;;;;;;5072087;28;20567;-68
2023/03/22 03:29:38;;;;;;;9.40;8.90;;;;;;;;;;5072310;28;20008;-69
2023/03/22 03:32:03;;;;;;;9.48;8.98;;;;;;;;;;5072223;28;20495;-69
2023/03/22 03:34:36;;;;;;;9.88;9.38;;;;;;;;;;5068184;28;20092;-68
2023/03/22 03:37:07;;;;;;;9.23;8.82;;;;;;;;;;5064080;28;20021;-68
2023/03/22 03:39:34;;;;;;;9.90;9.40;;;;;;;;;;5071822;28;20048;-68
2023/03/22 03:42:00;;;;;;;10.05;9.55;;;;;;;;;;5072041;28;20032;-68
2023/03/22 03:44:26;;;;;;;9.35;8.93;;;;;;;;;;5065729;28;20017;-68
2023/03/22 03:46:52;;;;;;;9.63;9.13;;;;;;;;;;5071776;28;20617;-68
2023/03/22 03:49:20;;;;;;;9.25;8.85;;;;;;;;;;5067372;28;20028;-69
2023/03/22 03:51:47;;;;;;;9.75;9.25;;;;;;;;;;5070911;28;20009;-68
2023/03/22 03:54:12;;;;;;;10.02;9.52;;;;;;;;;;5075906;28;20042;-68
2023/03/22 03:56:38;;;;;;;9.95;9.45;;;;;;;;;;5061468;28;20125;-69
2023/03/22 03:59:03;;;;;;;9.70;9.20;;;;;;;;;;5070474;28;20484;-68
2023/03/22 04:01:28;;;;;;;9.27;8.88;;;;;;;;;;5071894;28;20012;-68
2023/03/22 04:03:54;;;;;;;9.57;9.07;;;;;;;;;;5068771;28;20016;-68
2023/03/22 04:06:19;;;;;;;9.38;8.90;;;;;;;;;;5063587;28;20024;-69
2023/03/22 04:08:44;;;;;;;9.30;8.82;;;;;;;;;;5070688;28;20040;-68
2023/03/22 04:11:10;;;;;;;9.32;8.82;;;;;;;;;;5071546;28;20031;-68
2023/03/22 04:13:35;;;;;;;9.20;8.75;;;;;;;;;;5070233;28;20728;-68
2023/03/22 04:16:01;;;;;;;9.68;9.18;;;;;;;;;;5071698;28;20041;-68
2023/03/22 04:18:28;;;;;;;9.60;9.10;;;;;;;;;;5067224;28;20048;-68
2023/03/22 04:20:55;;;;;;;9.27;8.82;;;;;;;;;;5071251;28;20031;-69
2023/03/22 04:23:21;;;;;;;9.93;9.43;;;;;;;;;;5071768;28;20024;-68
2023/03/22 04:25:49;;;;;;;10.00;9.50;;;;;;;;;;5052973;28;20564;-68
2023/03/22 04:28:14;;;;;;;9.38;8.93;;;;;;;;;;5069777;28;20460;-68
2023/03/22 04:30:39;;;;;;;10.07;9.57;;;;;;;;;;5068559;28;20013;-68
2023/03/22 04:33:05;;;;;;;10.18;9.68;;;;;;;;;;5061705;28;20478;-68
2023/03/22 04:35:31;;;;;;;9.63;9.13;;;;;;;;;;5071379;28;20017;-68
2023/03/22 04:37:58;;;;;;;9.88;9.38;;;;;;;;;;5070972;28;20024;-68
2023/03/22 04:40:25;;;;;;;9.65;9.15;;;;;;;;;;5070762;28;20083;-68
2023/03/22 04:42:50;;;;;;;9.68;9.18;;;;;;;;;;5063665;28;20021;-69
2023/03/22 04:45:15;;;;;;;9.63;9.13;;;;;;;;;;5057192;28;20024;-69
2023/03/22 04:47:41;;;;;;;9.10;8.70;;;;;;;;;;5066145;28;20016;-68
2023/03/22 04:50:06;;;;;;;9.68;9.18;;;;;;;;;;5071067;28;20491;-68
2023/03/22 04:52:31;;;;;;;10.00;9.50;;;;;;;;;;5073192;28;20019;-68
2023/03/22 04:54:57;;;;;;;9.75;9.25;;;;;;;;;;5070834;28;20091;-68
2023/03/22 04:57:24;;;;;;;9.55;9.05;;;;;;;;;;5070663;28;20055;-68
2023/03/22 04:59:49;;;;;;;9.50;9.02;;;;;;;;;;5066553;28;20063;-69
2023/03/22 05:02:16;;;;;;;9.60;9.10;;;;;;;;;;5070731;28;20040;-68
2023/03/22 05:04:41;;;;;;;9.50;9.00;;;;;;;;;;5070930;28;20096;-68
2023/03/22 05:07:06;;;;;;;9.07;8.68;;;;;;;;;;5054687;28;20112;-69
2023/03/22 05:09:32;;;;;;;9.85;9.35;;;;;;;;;;5070649;28;20108;-67
2023/03/22 05:11:57;;;;;;;9.90;9.40;;;;;;;;;;5069323;28;20055;-68
2023/03/22 05:14:22;;;;;;;9.57;9.07;;;;;;;;;;5063546;28;20104;-68
2023/03/22 05:16:48;;;;;;;10.07;9.57;;;;;;;;;;5068295;28;20040;-68
2023/03/22 05:19:13;;;;;;;9.80;9.30;;;;;;;;;;5070615;28;20013;-68
2023/03/22 05:21:39;;;;;;;10.05;9.55;;;;;;;;;;5070725;28;20028;-68
2023/03/22 05:24:05;;;;;;;9.57;9.07;;;;;;;;;;5070527;28;20092;-68
2023/03/22 05:26:31;;;;;;;10.05;9.55;;;;;;;;;;5069129;28;20111;-68
2023/03/22 05:28:56;;;;;;;9.95;9.45;;;;;;;;;;5069429;28;20024;-68
2023/03/22 05:31:21;;;;;;;9.70;9.20;;;;;;;;;;5070689;28;20013;-67
2023/03/22 05:33:49;;;;;;;9.70;9.20;;;;;;;;;;5059066;28;20020;-68
2023/03/22 05:36:16;;;;;;;9.68;9.18;;;;;;;;;;5066109;28;20092;-71
2023/03/22 05:38:43;;;;;;;10.05;9.55;;;;;;;;;;5074647;28;20081;-68
2023/03/22 05:41:09;;;;;;;10.70;10.10;;;;;;;;;;5067759;28;20031;-68
2023/03/22 05:43:34;;;;;;;10.32;9.82;;;;;;;;;;5074165;28;20028;-68
2023/03/22 05:46:00;;;;;;;9.90;9.40;;;;;;;;;;5073846;28;20012;-68
2023/03/22 05:48:25;;;;;;;9.57;9.10;;;;;;;;;;5073151;28;20095;-68
2023/03/22 05:50:50;;;;;;;11.45;10.82;;;;;;;;;;5060493;28;20017;-68
2023/03/22 05:53:15;;;;;;;9.55;9.05;;;;;;;;;;5073632;28;20556;-68
2023/03/22 05:55:41;;;;;;;9.90;9.40;;;;;;;;;;5073827;28;20516;-68
2023/03/22 05:58:07;;;;;;;10.20;9.70;;;;;;;;;;5073840;28;20547;-68
2023/03/22 06:00:32;;;;;;;10.00;9.50;;;;;;;;;;5073430;28;20033;-69
2023/03/22 06:03:02;;;;;;;10.52;10.02;;;;;;;;;;5069944;28;20484;-68
2023/03/22 06:05:27;;;;;;;10.35;9.85;;;;;;;;;;5062611;28;20021;-69
2023/03/22 06:07:53;;;;;;;9.98;9.48;;;;;;;;;;5060667;28;20032;-68
2023/03/22 06:10:18;;;;;;;10.25;9.75;;;;;;;;;;5073313;28;20040;-68
2023/03/22 06:12:44;;;;;;;10.02;9.52;;;;;;;;;;5073703;28;20024;-69
2023/03/22 06:15:10;;;;;;;9.93;9.43;;;;;;;;;;5073877;28;20074;-68
2023/03/22 06:17:35;;;;;;;10.43;9.93;;;;;;;;;;5075804;28;20047;-69
2023/03/22 06:20:01;;;;;;;9.80;9.30;;;;;;;;;;5087556;28;20032;-68
2023/03/22 06:22:29;;;;;;;10.50;10.00;;;;;;;;;;5071582;28;20585;-68
2023/03/22 06:24:54;;;;;;;10.27;9.77;;;;;;;;;;5059952;28;20039;-68
2023/03/22 06:27:20;;;;;;;9.90;9.40;;;;;;;;;;5067442;28;20467;-69
2023/03/22 06:29:49;;;;;;;10.10;9.60;;;;;;;;;;5073148;28;20100;-69
2023/03/22 06:32:15;;;;;;;9.90;9.40;;;;;;;;;;5072277;28;20467;-69
2023/03/22 06:34:40;;;;;;;9.82;9.32;;;;;;;;;;5072226;28;20066;-69
2023/03/22 06:37:06;;;;;;;9.80;9.30;;;;;;;;;;5073151;28;20021;-68
2023/03/22 06:39:31;;;;;;;9.85;9.35;;;;;;;;;;5068394;28;20484;-69
2023/03/22 06:41:56;;;;;;;10.00;9.50;;;;;;;;;;5055445;28;20074;-68
2023/03/22 06:44:21;;;;;;;9.98;9.48;;;;;;;;;;5067918;28;20025;-68
2023/03/22 06:46:47;;;;;;;9.90;9.40;;;;;;;;;;5065780;28;20020;-67
2023/03/22 06:49:12;;;;;;;9.90;9.40;;;;;;;;;;5070829;28;20016;-68
2023/03/22 06:51:37;;;;;;;10.43;9.93;;;;;;;;;;5072632;28;20380;-68
2023/03/22 06:54:03;;;;;;;10.30;9.80;;;;;;;;;;5073354;28;20024;-69
2023/03/22 06:56:28;;;;;;;9.95;9.45;;;;;;;;;;5071692;28;20024;-68
2023/03/22 06:58:56;;;;;;;10.52;10.02;;;;;;;;;;5071224;28;20479;-69
2023/03/22 07:01:21;;;;;;;10.30;9.80;;;;;;;;;;5072737;28;20505;-69
2023/03/22 07:03:46;;;;;;;9.90;9.40;;;;;;;;;;5072586;28;20052;-68
2023/03/22 07:06:12;;;;;;;9.38;8.98;;;;;;;;;;5072692;28;20024;-69
2023/03/22 07:08:38;;;;;;;9.73;9.27;;;;;;;;;;5072668;28;20480;-68
2023/03/22 07:11:04;;;;;;;10.00;9.50;;;;;;;;;;5072598;28;20059;-69
2023/03/22 07:13:29;;;;;;;9.70;9.30;;;;;;;;;;5071648;28;20019;-69
2023/03/22 07:15:55;;;;;;;9.75;9.35;;;;;;;;;;5072462;28;20017;-69
2023/03/22 07:18:21;;;;;;;10.30;9.80;;;;;;;;;;5072822;28;20023;-69
2023/03/22 07:20:46;;;;;;;10.38;9.88;;;;;;;;;;5072349;28;20021;-69
2023/03/22 07:23:11;;;;;;;10.20;9.70;;;;;;;;;;5072538;28;20099;-68
2023/03/22 07:25:37;;;;;;;10.05;9.57;;;;;;;;;;5072682;28;20031;-68
2023/03/22 07:28:02;;;;;;;10.00;9.60;;;;;;;;;;5068253;28;20492;-68
2023/03/22 07:30:27;;;;;;;10.02;9.63;;;;;;;;;;5072196;28;20040;-69
2023/03/22 07:32:52;;;;;;;10.13;9.73;;;;;;;;;;5063984;28;20102;-69
2023/03/22 07:35:18;;;;;;;9.98;9.57;;;;;;;;;;5071430;28;20103;-68
2023/03/22 07:37:47;;;;;;;9.75;9.35;;;;;;;;;;5071670;28;20024;-69
2023/03/22 07:40:12;;;;;;;9.95;9.55;;;;;;;;;;5075412;28;20027;-69
2023/03/22 07:42:38;;;;;;;10.60;10.10;;;;;;;;;;5080504;28;20017;-70
2023/03/22 07:45:03;;;;;;;10.77;10.27;;;;;;;;;;5071491;28;20444;-68
2023/03/22 07:47:29;;;;;;;10.13;9.73;;;;;;;;;;5070970;28;20016;-67
2023/03/22 07:49:54;;;;;;;10.38;9.90;;;;;;;;;;5064838;28;20015;-68
2023/03/22 07:52:19;;;;;;;10.65;10.15;;;;;;;;;;5066859;28;20092;-69
2023/03/22 07:54:45;;;;;;;10.13;9.73;;;;;;;;;;5070311;28;20017;-68
2023/03/22 07:57:10;;;;;;;10.68;10.18;;;;;;;;;;5071511;28;20676;-68
2023/03/22 07:59:35;;;;;;;9.75;9.35;;;;;;;;;;5071172;28;20063;-69
2023/03/22 08:02:01;;;;;;;10.40;9.90;;;;;;;;;;5071433;28;20062;-69
2023/03/22 08:04:26;;;;;;;10.75;10.25;;;;;;;;;;5065448;28;20013;-68
2023/03/22 08:06:57;;;;;;;10.30;9.85;;;;;;;;;;5070976;28;20100;-68
2023/03/22 08:09:22;;;;;;;10.38;9.90;;;;;;;;;;5073164;28;20059;-70
2023/03/22 08:11:47;;;;;;;10.23;9.80;;;;;;;;;;5071541;28;20043;-69
2023/03/22 08:14:13;;;;;;;10.02;9.63;;;;;;;;;;5071234;28;20494;-68
2023/03/22 08:16:40;;;;;;;10.18;9.77;;;;;;;;;;5071418;28;20027;-68
2023/03/22 08:19:05;;;;;;;10.43;9.98;;;;;;;;;;5068209;28;20107;-69
2023/03/22 08:21:31;;;;;;;10.77;10.27;;;;;;;;;;5070188;28;20100;-70
2023/03/22 08:23:56;;;;;;;10.50;10.00;;;;;;;;;;5058999;28;20041;-68
2023/03/22 08:26:22;;;;;;;10.20;9.80;;;;;;;;;;5071126;28;20024;-68
2023/03/22 08:28:47;;;;;;;10.43;9.93;;;;;;;;;;5069769;28;20033;-68
2023/03/22 08:31:14;;;;;;;10.05;9.65;;;;;;;;;;5071108;28;20035;-68
2023/03/22 08:33:39;;;;;;;10.60;10.10;;;;;;;;;;5069981;28;20108;-68
2023/03/22 08:36:06;;;;;;;10.40;9.90;;;;;;;;;;5070928;28;20387;-68
2023/03/22 08:38:31;;;;;;;10.48;9.98;;;;;;;;;;5069918;28;20024;-68
2023/03/22 08:40:56;;;;;;;11.45;10.95;;;;;;;;;;5067158;28;20094;-67
2023/03/22 08:43:22;;;;;;;10.40;9.90;;;;;;;;;;5070845;28;20500;-69
2023/03/22 08:45:47;;;;;;;10.87;10.37;;;;;;;;;;5068015;28;20096;-69
2023/03/22 08:48:12;;;;;;;10.75;10.25;;;;;;;;;;5058693;28;20281;-69
2023/03/22 08:50:38;;;;;;;10.63;10.13;;;;;;;;;;5057109;28;20013;-69
2023/03/22 08:53:04;;;;;;;10.65;10.15;;;;;;;;;;5070785;28;20107;-68
2023/03/22 08:55:30;;;;;;;10.60;10.10;;;;;;;;;;5069721;28;20016;-69
2023/03/22 08:57:58;;;;;;;10.50;10.00;;;;;;;;;;5070878;28;20055;-68
2023/03/22 09:00:24;;;;;;;10.40;9.90;;;;;;;;;;5063351;28;20036;-68
2023/03/22 09:02:49;;;;;;;10.32;9.82;;;;;;;;;;5070554;28;20141;-69
2023/03/22 09:05:15;;;;;;;10.60;10.10;;;;;;;;;;5070820;28;20361;-69
2023/03/22 09:07:40;;;;;;;10.80;10.30;;;;;;;;;;5070675;28;20514;-69
2023/03/22 09:10:06;;;;;;;10.82;10.32;;;;;;;;;;5070803;28;20074;-69
2023/03/22 09:12:32;;;;;;;10.70;10.20;;;;;;;;;;5075368;28;20028;-69
2023/03/22 09:14:57;;;;;;;10.98;10.48;;;;;;;;;;5073133;28;20093;-69
2023/03/22 09:17:22;;;;;;;10.30;9.80;;;;;;;;;;5075838;28;20028;-70
2023/03/22 09:19:48;;;;;;;10.40;9.90;;;;;;;;;;5077228;28;20403;-68
2023/03/22 09:22:13;;;;;;;10.55;10.05;;;;;;;;;;5077132;28;20028;-68
2023/03/22 09:24:39;;;;;;;10.63;10.13;;;;;;;;;;5077258;28;20016;-67
2023/03/22 09:27:04;;;;;;;10.40;9.90;;;;;;;;;;5077291;28;20489;-68
2023/03/22 09:29:31;;;;;;;10.13;9.73;;;;;;;;;;5075055;28;20508;-68
2023/03/22 09:31:56;;;;;;;10.75;10.25;;;;;;;;;;5071171;28;20025;-69
2023/03/22 09:34:21;;;;;;;10.15;9.70;;;;;;;;;;5065664;28;20648;-69
2023/03/22 09:36:47;;;;;;;10.85;10.35;;;;;;;;;;5077225;28;20013;-68
2023/03/22 09:39:12;;;;;;;10.98;10.48;;;;;;;;;;5073234;28;20063;-69
2023/03/22 09:41:49;;;;;;;10.20;9.73;;;;;;;;;;5070232;28;20008;-67
2023/03/22 09:44:21;;;;;;;10.75;10.25;;;;;;;;;;5075028;28;20421;-69
2023/03/22 09:46:47;;;;;;;10.45;9.95;;;;;;;;;;5076253;28;20499;-69
2023/03/22 09:49:15;;;;;;;10.32;9.82;;;;;;;;;;5077100;28;20024;-69
2023/03/22 09:51:45;;;;;;;10.45;9.95;;;;;;;;;;5076908;28;20486;-68
2023/03/22 09:54:12;;;;;;;10.70;10.20;;;;;;;;;;5076449;28;20020;-69
2023/03/22 09:56:39;;;;;;;10.40;9.90;;;;;;;;;;5071820;28;20020;-69
2023/03/22 09:59:13;;;;;;;10.27;9.77;;;;;;;;;;5077080;28;20069;-68
2023/03/22 10:01:38;;;;;;;10.30;9.80;;;;;;;;;;5075438;28;20542;-69
2023/03/22 10:04:11;;;;;;;10.80;10.30;;;;;;;;;;5075749;28;20025;-69
2023/03/22 10:06:38;;;;;;;10.13;9.67;;;;;;;;;;5076836;28;20028;-69
2023/03/22 10:09:12;;;;;;;10.27;9.77;;;;;;;;;;5076783;28;20178;-68
2023/03/22 10:11:38;;;;;;;10.30;9.80;;;;;;;;;;5071392;28;20024;-69
2023/03/22 10:14:03;;;;;;;10.27;9.77;;;;;;;;;;5066260;28;20024;-68
2023/03/22 10:16:31;;;;;;;10.23;9.73;;;;;;;;;;5076737;28;20078;-69
2023/03/22 10:19:17;;;;;;;10.70;10.20;;;;;;;;;;5074332;28;20024;-68
2023/03/22 10:21:44;;;;;;;10.50;10.00;;;;;;;;;;5075568;28;20130;-69
2023/03/22 10:24:36;;;;;;;9.95;9.55;;;;;;;;;;5071569;28;20056;-68
2023/03/22 10:27:01;;;;;;;9.93;9.52;;;;;;;;;;5071219;28;20063;-68
2023/03/22 10:29:27;;;;;;;9.88;9.48;;;;;;;;;;5073776;28;20048;-68
2023/03/22 10:31:53;;;;;;;10.07;9.65;;;;;;;;;;5059999;28;20029;-68
2023/03/22 10:34:22;;;;;;;10.40;9.90;;;;;;;;;;5073850;28;20063;-68
2023/03/22 10:36:50;;;;;;;10.45;9.95;;;;;;;;;;5073514;28;20012;-69
2023/03/22 10:39:27;;;;;;;10.43;9.93;;;;;;;;;;5059912;28;20010;-68
2023/03/22 10:41:57;;;;;;;10.57;10.02;;;;;;;;;;5066964;28;20058;-69
2023/03/22 10:44:24;;;;;;;10.20;9.70;;;;;;;;;;5073145;28;20020;-68
2023/03/22 10:46:50;;;;;;;10.75;10.25;;;;;;;;;;5073140;28;20099;-69
2023/03/22 10:49:26;;;;;;;10.40;9.90;;;;;;;;;;5072986;28;20404;-69
2023/03/22 10:51:53;;;;;;;10.45;9.95;;;;;;;;;;5073080;28;20433;-69
2023/03/22 10:54:20;;;;;;;10.73;10.23;;;;;;;;;;5072774;28;20487;-68
2023/03/22 10:56:45;;;;;;;10.43;9.93;;;;;;;;;;5059443;28;20049;-69
2023/03/22 10:59:29;;;;;;;10.00;9.60;;;;;;;;;;5073156;28;20439;-69
2023/03/22 11:01:55;;;;;;;10.35;9.88;;;;;;;;;;5060665;28;20480;-69
2023/03/22 11:04:20;;;;;;;10.38;9.88;;;;;;;;;;5072839;28;20025;-69
2023/03/22 11:06:50;;;;;;;10.30;9.80;;;;;;;;;;5072621;28;20044;-69
2023/03/22 11:09:18;;;;;;;9.95;9.55;;;;;;;;;;5072871;28;20425;-68
2023/03/22 11:11:46;;;;;;;10.88;10.38;;;;;;;;;;5068932;28;20218;-68
2023/03/22 11:14:28;;;;;;;10.60;10.10;;;;;;;;;;5064581;28;20051;-70
2023/03/22 11:16:55;;;;;;;10.35;9.85;;;;;;;;;;5059221;28;20435;-69
2023/03/22 11:19:26;;;;;;;9.95;9.55;;;;;;;;;;5072597;28;20017;-69
2023/03/22 11:21:53;;;;;;;10.00;9.60;;;;;;;;;;5066464;28;20025;-68
2023/03/22 11:24:20;;;;;;;10.48;9.98;;;;;;;;;;5072369;28;20020;-68
2023/03/22 11:27:00;;;;;;;9.93;9.50;;;;;;;;;;5072283;28;20039;-68
2023/03/22 11:29:26;;;;;;;10.43;9.93;;;;;;;;;;5071437;28;20021;-69
2023/03/22 11:31:51;;;;;;;10.40;9.90;;;;;;;;;;5071908;28;20023;-69
2023/03/22 11:34:18;;;;;;;10.40;9.90;;;;;;;;;;5064770;28;20025;-69
2023/03/22 11:36:44;;;;;;;10.75;10.25;;;;;;;;;;5065291;28;20104;-69
2023/03/22 11:39:10;;;;;;;10.48;9.98;;;;;;;;;;5070336;28;20486;-68
2023/03/22 11:41:38;;;;;;;9.95;9.55;;;;;;;;;;5072230;28;20107;-68
2023/03/22 11:44:04;;;;;;;10.23;9.73;;;;;;;;;;5070798;28;20075;-68
2023/03/22 11:46:30;;;;;;;10.27;9.77;;;;;;;;;;5071249;28;20044;-68
2023/03/22 11:48:57;;;;;;;10.10;9.65;;;;;;;;;;5071698;28;20058;-68
2023/03/22 11:51:49;;;;;;;10.05;9.60;;;;;;;;;;5071937;28;20012;-68
2023/03/22 11:54:15;;;;;;;10.40;9.90;;;;;;;;;;5080366;28;20494;-67
2023/03/22 11:56:42;;;;;;;10.45;9.95;;;;;;;;;;5071876;28;20047;-69
2023/03/22 11:59:11;;;;;;;10.10;9.60;;;;;;;;;;5071450;28;20043;-69
2023/03/22 12:01:37;;;;;;;9.70;9.30;;;;;;;;;;5071816;28;20447;-69
2023/03/22 12:04:04;;;;;;;10.30;9.80;;;;;;;;;;5066362;28;20043;-69
2023/03/22 12:06:35;;;;;;;10.15;9.68;;;;;;;;;;5070010;28;20494;-68
2023/03/22 12:09:09;;;;;;;10.50;10.00;;;;;;;;;;5070051;28;20032;-68
2023/03/22 12:11:34;;;;;;;;;;;;;;;;;;5071811;28;20475;-69
2023/03/22 12:14:02;;;;;;;10.30;9.80;;;;;;;;;;5071513;28;19904;-69
2023/03/22 12:16:31;;;;;;;10.15;9.68;;;;;;;;;;5071332;28;20399;-69
2023/03/22 12:19:07;;;;;;;11.02;10.52;;;;;;;;;;5071448;28;20356;-68
2023/03/22 12:21:33;;;;;;;10.43;9.93;;;;;;;;;;5068932;28;20017;-69
2023/03/22 12:24:01;;;;;;;10.70;10.20;;;;;;;;;;5071457;28;20027;-68
2023/03/22 12:26:27;;;;;;;9.68;9.27;;;;;;;;;;5071080;28;20489;-69
2023/03/22 12:29:01;;;;;;;10.20;9.73;;;;;;;;;;5070932;28;20104;-69
2023/03/22 12:31:30;;;;;;;9.90;9.50;;;;;;;;;;5071134;28;20031;-68
2023/03/22 12:33:59;;;;;;;9.73;9.32;;;;;;;;;;5071039;28;20463;-68
2023/03/22 12:36:48;;;;;;;10.02;9.57;;;;;;;;;;5070880;28;20013;-67
2023/03/22 12:39:30;;;;;;;10.35;9.85;;;;;;;;;;5057927;28;20033;-68
2023/03/22 12:41:59;;;;;;;9.90;9.50;;;;;;;;;;5069618;28;20028;-68
2023/03/22 12:44:26;;;;;;;10.43;9.93;;;;;;;;;;5069515;28;20020;-68
2023/03/22 12:47:04;;;;;;;10.07;9.65;;;;;;;;;;5070188;28;20523;-68
2023/03/22 12:49:35;;;;;;;10.10;9.65;;;;;;;;;;5067083;28;20092;-70
2023/03/22 12:52:14;;;;;;;10.25;9.75;;;;;;;;;;5060919;28;20375;-68
2023/03/22 12:54:40;;;;;;;9.68;9.27;;;;;;;;;;5060745;28;20442;-68
2023/03/22 12:57:05;;;;;;;10.82;10.32;;;;;;;;;;5067593;28;20123;-68
2023/03/22 12:59:31;;;;;;;10.00;9.60;;;;;;;;;;5070720;28;20104;-68
2023/03/22 13:02:03;;;;;;;9.98;9.57;;;;;;;;;;5069236;28;20028;-68
2023/03/22 13:04:34;;;;;;;9.93;9.52;;;;;;;;;;5070815;28;20013;-68
2023/03/22 13:07:10;;;;;;;10.20;9.70;;;;;;;;;;5071788;28;20066;-68
2023/03/22 13:09:36;;;;;;;10.10;9.65;;;;;;;;;;5056736;28;20027;-68
2023/03/22 13:12:16;;;;;;;10.50;10.00;;;;;;;;;;5064044;28;20091;-68
2023/03/22 13:14:50;;;;;;;9.93;9.52;;;;;;;;;;5058018;28;20411;-68
2023/03/22 13:17:16;;;;;;;;;;;;;;;;;;5071014;28;20028;-69
2023/03/22 13:19:50;;;;;;;9.77;9.37;;;;;;;;;;5070654;28;20012;-69
2023/03/22 13:22:21;;;;;;;10.20;9.70;;;;;;;;;;5070461;28;20100;-68
2023/03/22 13:24:56;;;;;;;9.80;9.40;;;;;;;;;;5058413;28;20031;-68
2023/03/22 13:27:22;;;;;;;9.98;9.52;;;;;;;;;;5070535;28;20029;-68
2023/03/22 13:29:52;;;;;;;9.80;9.40;;;;;;;;;;5057585;28;20021;-69
2023/03/22 13:32:28;;;;;;;10.10;9.65;;;;;;;;;;5070238;28;20074;-68
2023/03/22 13:34:54;;;;;;;10.30;9.80;;;;;;;;;;5057578;28;20029;-69
2023/03/22 13:37:40;;;;;;;10.98;10.48;;;;;;;;;;5070246;28;20411;-69
2023/03/22 13:40:33;;;;;;;12.65;12.02;;;;;;;;;;5065708;28;20028;-69
2023/03/22 13:43:19;;;;;;;10.32;9.82;;;;;;;;;;5066593;28;20029;-69
2023/03/22 13:45:57;;;;;;;10.48;9.98;;;;;;;;;;5062903;28;20023;-69
2023/03/22 13:48:31;;;;;;;10.15;9.65;;;;;;;;;;5070206;28;20013;-68
2023/03/22 13:50:57;;;;;;;11.10;10.60;;;;;;;;;;5066565;28;20021;-68
2023/03/22 13:53:29;;;;;;;10.40;9.90;;;;;;;;;;5070354;28;20021;-68
2023/03/22 13:55:54;;;;;;;9.85;9.45;;;;;;;;;;5069739;28;20016;-68
2023/03/22 13:58:29;;;;;;;10.38;9.88;;;;;;;;;;5071038;28;20044;-68
2023/03/22 14:00:56;;;;;;;9.90;9.48;;;;;;;;;;5060703;28;20016;-68
2023/03/22 14:03:33;;;;;;;9.75;9.35;;;;;;;;;;5070321;28;20051;-69
2023/03/22 14:06:04;;;;;;;10.45;9.95;;;;;;;;;;5073818;28;20019;-68
2023/03/22 14:08:31;;;;;;;11.00;10.50;;;;;;;;;;5073972;28;20028;-68
2023/03/22 14:11:09;;;;;;;11.07;10.57;;;;;;;;;;5072952;28;20020;-68
2023/03/22 14:13:41;;;;;;;10.60;10.10;;;;;;;;;;5073609;28;20027;-69
2023/03/22 14:16:27;;;;;;;10.82;10.32;;;;;;;;;;5073470;28;20389;-68
2023/03/22 14:18:53;;;;;;;11.32;10.82;;;;;;;;;;5072480;28;20021;-69
2023/03/22 14:21:22;;;;;;;11.05;10.55;;;;;;;;;;5064240;28;20030;-70
2023/03/22 14:23:49;;;;;;;10.23;9.73;;;;;;;;;;5073358;28;20017;-68
2023/03/22 14:26:17;;;;;;;10.63;10.13;;;;;;;;;;5073653;28;20365;-69
2023/03/22 14:28:42;;;;;;;10.63;10.13;;;;;;;;;;5074788;28;20396;-69
2023/03/22 14:31:26;;;;;;;10.52;10.02;;;;;;;;;;5073390;28;20009;-69
2023/03/22 14:33:52;;;;;;;11.13;10.63;;;;;;;;;;5072796;28;20025;-69
2023/03/22 14:36:19;;;;;;;10.98;10.48;;;;;;;;;;5068938;28;20643;-68
2023/03/22 14:38:45;;;;;;;10.18;9.68;;;;;;;;;;5073148;28;20028;-69